sensor_id;sensor_type;location;lat;lon;timestamp;temperature;humidity
17174;DHT22;8702;48.130;-1.696;2022-12-24T00:01:37;13.80;99.90
17174;DHT22;8702;48.130;-1.696;2022-12-24T00:04:04;13.80;99.90
17174;DHT22;8702;48.130;-1.696;2022-12-24T00:06:31;13.80;99.90
17174;DHT22;8702;48.130;-1.696;2022-12-24T00:08:58;13.90;99.90
17174;DHT22;8702;48.130;-1.696;2022-12-24T00:11:26;13.80;99.90
17174;DHT22;8702;48.130;-1.696;2022-12-24T00:13:53;13.90;99.90
17174;DHT22;8702;48.130;-1.696;2022-12-24T00:16:20;13.90;99.90
17174;DHT22;8702;48.130;-1.696;2022-12-24T00:18:47;13.80;99.90
17174;DHT22;8702;48.130;-1.696;2022-12-24T00:21:14;13.90;99.90
17174;DHT22;8702;48.130;-1.696;2022-12-24T00:23:41;13.80;99.90
17174;DHT22;8702;48.130;-1.696;2022-12-24T00:26:08;13.70;99.90
17174;DHT22;8702;48.130;-1.696;2022-12-24T00:28:37;13.70;99.90
17174;DHT22;8702;48.130;-1.696;2022-12-24T00:31:08;13.80;99.90
17174;DHT22;8702;48.130;-1.696;2022-12-24T00:33:36;13.70;99.90
17174;DHT22;8702;48.130;-1.696;2022-12-24T00:36:04;13.70;99.90
17174;DHT22;8702;48.130;-1.696;2022-12-24T00:38:31;13.80;99.90
17174;DHT22;8702;48.130;-1.696;2022-12-24T00:40:58;13.80;99.90
17174;DHT22;8702;48.130;-1.696;2022-12-24T00:43:26;13.80;99.90
17174;DHT22;8702;48.130;-1.696;2022-12-24T00:45:54;13.80;99.90
17174;DHT22;8702;48.130;-1.696;2022-12-24T00:48:22;13.70;99.90
17174;DHT22;8702;48.130;-1.696;2022-12-24T00:50:49;13.70;99.90
17174;DHT22;8702;48.130;-1.696;2022-12-24T00:53:16;13.70;99.90
17174;DHT22;8702;48.130;-1.696;2022-12-24T00:55:43;13.80;99.90
17174;DHT22;8702;48.130;-1.696;2022-12-24T00:58:10;13.70;99.90
17174;DHT22;8702;48.130;-1.696;2022-12-24T01:00:37;13.60;99.90
17174;DHT22;8702;48.130;-1.696;2022-12-24T01:03:05;13.60;99.90
17174;DHT22;8702;48.130;-1.696;2022-12-24T01:05:32;13.60;99.90
17174;DHT22;8702;48.130;-1.696;2022-12-24T01:07:58;13.60;99.90
17174;DHT22;8702;48.130;-1.696;2022-12-24T01:10:25;13.60;99.90
17174;DHT22;8702;48.130;-1.696;2022-12-24T01:12:52;13.70;99.90
17174;DHT22;8702;48.130;-1.696;2022-12-24T01:15:19;13.70;99.90
17174;DHT22;8702;48.130;-1.696;2022-12-24T01:17:46;13.80;99.90
17174;DHT22;8702;48.130;-1.696;2022-12-24T01:20:15;13.70;99.90
17174;DHT22;8702;48.130;-1.696;2022-12-24T01:22:42;13.80;99.90
17174;DHT22;8702;48.130;-1.696;2022-12-24T01:25:09;13.70;99.90
17174;DHT22;8702;48.130;-1.696;2022-12-24T01:27:36;13.80;99.90
17174;DHT22;8702;48.130;-1.696;2022-12-24T01:30:05;13.90;99.90
17174;DHT22;8702;48.130;-1.696;2022-12-24T01:32:32;14.30;99.90
17174;DHT22;8702;48.130;-1.696;2022-12-24T01:34:59;13.60;99.90
17174;DHT22;8702;48.130;-1.696;2022-12-24T01:37:27;13.70;99.90
17174;DHT22;8702;48.130;-1.696;2022-12-24T01:39:54;13.70;99.90
17174;DHT22;8702;48.130;-1.696;2022-12-24T01:42:44;13.60;99.90
17174;DHT22;8702;48.130;-1.696;2022-12-24T01:45:47;13.80;99.90
17174;DHT22;8702;48.130;-1.696;2022-12-24T01:48:30;13.70;99.90
17174;DHT22;8702;48.130;-1.696;2022-12-24T01:51:01;13.60;99.90
17174;DHT22;8702;48.130;-1.696;2022-12-24T01:53:34;13.60;99.90
17174;DHT22;8702;48.130;-1.696;2022-12-24T01:56:02;13.60;99.90
17174;DHT22;8702;48.130;-1.696;2022-12-24T01:58:31;13.60;99.90
17174;DHT22;8702;48.130;-1.696;2022-12-24T02:00:59;13.60;99.90
17174;DHT22;8702;48.130;-1.696;2022-12-24T02:03:26;13.70;99.90
17174;DHT22;8702;48.130;-1.696;2022-12-24T02:05:55;13.70;99.90
17174;DHT22;8702;48.130;-1.696;2022-12-24T02:08:23;13.70;99.90
17174;DHT22;8702;48.130;-1.696;2022-12-24T02:11:10;13.70;99.90
17174;DHT22;8702;48.130;-1.696;2022-12-24T02:13:37;13.80;99.90
17174;DHT22;8702;48.130;-1.696;2022-12-24T02:24:07;14.10;99.90
17174;DHT22;8702;48.130;-1.696;2022-12-24T02:26:55;14.10;99.90
17174;DHT22;8702;48.130;-1.696;2022-12-24T02:32:27;14.10;99.90
17174;DHT22;8702;48.130;-1.696;2022-12-24T02:35:04;14.20;99.90
17174;DHT22;8702;48.130;-1.696;2022-12-24T02:37:36;14.20;99.90
17174;DHT22;8702;48.130;-1.696;2022-12-24T02:40:09;14.20;99.90
17174;DHT22;8702;48.130;-1.696;2022-12-24T02:42:39;14.10;99.90
17174;DHT22;8702;48.130;-1.696;2022-12-24T02:45:08;14.20;99.90
17174;DHT22;8702;48.130;-1.696;2022-12-24T02:47:38;14.30;99.90
17174;DHT22;8702;48.130;-1.696;2022-12-24T02:50:08;14.30;99.90
17174;DHT22;8702;48.130;-1.696;2022-12-24T02:52:37;15.00;99.90
17174;DHT22;8702;48.130;-1.696;2022-12-24T02:55:07;14.30;99.90
17174;DHT22;8702;48.130;-1.696;2022-12-24T02:57:44;14.20;99.90
17174;DHT22;8702;48.130;-1.696;2022-12-24T03:00:16;14.20;99.90
17174;DHT22;8702;48.130;-1.696;2022-12-24T03:03:03;14.20;99.90
17174;DHT22;8702;48.130;-1.696;2022-12-24T03:05:37;14.20;99.90
17174;DHT22;8702;48.130;-1.696;2022-12-24T03:08:10;14.10;99.90
17174;DHT22;8702;48.130;-1.696;2022-12-24T03:10:43;14.20;99.90
17174;DHT22;8702;48.130;-1.696;2022-12-24T03:13:14;14.20;99.90
17174;DHT22;8702;48.130;-1.696;2022-12-24T03:15:41;14.20;99.90
17174;DHT22;8702;48.130;-1.696;2022-12-24T03:18:12;14.10;99.90
17174;DHT22;8702;48.130;-1.696;2022-12-24T03:20:41;14.00;99.90
17174;DHT22;8702;48.130;-1.696;2022-12-24T03:23:10;14.00;99.90
17174;DHT22;8702;48.130;-1.696;2022-12-24T03:25:39;13.90;99.90
17174;DHT22;8702;48.130;-1.696;2022-12-24T03:28:08;14.00;99.90
17174;DHT22;8702;48.130;-1.696;2022-12-24T03:30:38;14.00;99.90
17174;DHT22;8702;48.130;-1.696;2022-12-24T03:33:07;14.10;99.90
17174;DHT22;8702;48.130;-1.696;2022-12-24T03:35:35;14.10;99.90
17174;DHT22;8702;48.130;-1.696;2022-12-24T03:38:05;14.00;99.90
17174;DHT22;8702;48.130;-1.696;2022-12-24T03:40:32;13.90;99.90
17174;DHT22;8702;48.130;-1.696;2022-12-24T03:42:59;14.00;99.90
17174;DHT22;8702;48.130;-1.696;2022-12-24T03:45:26;13.90;99.90
17174;DHT22;8702;48.130;-1.696;2022-12-24T03:47:53;13.90;99.90
17174;DHT22;8702;48.130;-1.696;2022-12-24T03:50:20;13.80;99.90
17174;DHT22;8702;48.130;-1.696;2022-12-24T03:52:48;13.70;99.90
17174;DHT22;8702;48.130;-1.696;2022-12-24T03:55:15;13.70;99.90
17174;DHT22;8702;48.130;-1.696;2022-12-24T03:57:42;13.60;99.90
17174;DHT22;8702;48.130;-1.696;2022-12-24T04:00:10;13.40;99.90
17174;DHT22;8702;48.130;-1.696;2022-12-24T04:02:37;13.70;99.90
17174;DHT22;8702;48.130;-1.696;2022-12-24T04:10:06;13.40;99.90
17174;DHT22;8702;48.130;-1.696;2022-12-24T04:12:33;13.40;99.90
17174;DHT22;8702;48.130;-1.696;2022-12-24T04:15:00;13.50;99.90
17174;DHT22;8702;48.130;-1.696;2022-12-24T04:17:27;13.50;99.90
17174;DHT22;8702;48.130;-1.696;2022-12-24T04:19:54;13.50;99.90
17174;DHT22;8702;48.130;-1.696;2022-12-24T04:22:21;13.50;99.90
17174;DHT22;8702;48.130;-1.696;2022-12-24T04:24:48;13.50;99.90
17174;DHT22;8702;48.130;-1.696;2022-12-24T04:27:17;13.50;99.90
17174;DHT22;8702;48.130;-1.696;2022-12-24T04:29:43;13.60;99.90
17174;DHT22;8702;48.130;-1.696;2022-12-24T04:32:10;13.70;99.90
17174;DHT22;8702;48.130;-1.696;2022-12-24T04:34:37;13.70;99.90
17174;DHT22;8702;48.130;-1.696;2022-12-24T04:37:04;13.80;99.90
17174;DHT22;8702;48.130;-1.696;2022-12-24T04:39:31;13.90;99.90
17174;DHT22;8702;48.130;-1.696;2022-12-24T04:41:58;13.80;99.90
17174;DHT22;8702;48.130;-1.696;2022-12-24T04:44:26;13.80;99.90
17174;DHT22;8702;48.130;-1.696;2022-12-24T04:46:53;13.80;99.90
17174;DHT22;8702;48.130;-1.696;2022-12-24T04:49:20;13.70;99.90
17174;DHT22;8702;48.130;-1.696;2022-12-24T04:51:47;13.70;99.90
17174;DHT22;8702;48.130;-1.696;2022-12-24T04:54:14;13.70;99.90
17174;DHT22;8702;48.130;-1.696;2022-12-24T04:56:41;13.70;99.90
17174;DHT22;8702;48.130;-1.696;2022-12-24T04:59:08;13.70;99.90
17174;DHT22;8702;48.130;-1.696;2022-12-24T05:01:36;13.80;99.90
17174;DHT22;8702;48.130;-1.696;2022-12-24T05:04:04;13.80;99.90
17174;DHT22;8702;48.130;-1.696;2022-12-24T05:06:32;13.60;99.90
17174;DHT22;8702;48.130;-1.696;2022-12-24T05:08:59;13.60;99.90
17174;DHT22;8702;48.130;-1.696;2022-12-24T05:11:27;13.60;99.90
17174;DHT22;8702;48.130;-1.696;2022-12-24T05:13:54;13.50;99.90
17174;DHT22;8702;48.130;-1.696;2022-12-24T05:16:22;13.60;99.90
17174;DHT22;8702;48.130;-1.696;2022-12-24T05:18:50;13.70;99.90
17174;DHT22;8702;48.130;-1.696;2022-12-24T05:21:20;13.70;99.90
17174;DHT22;8702;48.130;-1.696;2022-12-24T05:23:47;13.70;99.90
17174;DHT22;8702;48.130;-1.696;2022-12-24T05:26:34;13.80;99.90
17174;DHT22;8702;48.130;-1.696;2022-12-24T05:29:02;13.90;99.90
17174;DHT22;8702;48.130;-1.696;2022-12-24T05:31:31;14.00;99.90
17174;DHT22;8702;48.130;-1.696;2022-12-24T05:34:00;14.00;99.90
17174;DHT22;8702;48.130;-1.696;2022-12-24T05:36:28;13.90;99.90
17174;DHT22;8702;48.130;-1.696;2022-12-24T05:38:55;13.80;99.90
17174;DHT22;8702;48.130;-1.696;2022-12-24T05:41:22;13.70;99.90
17174;DHT22;8702;48.130;-1.696;2022-12-24T05:43:49;13.60;99.90
17174;DHT22;8702;48.130;-1.696;2022-12-24T05:46:19;13.70;99.90
17174;DHT22;8702;48.130;-1.696;2022-12-24T05:48:46;13.70;99.90
17174;DHT22;8702;48.130;-1.696;2022-12-24T05:51:16;13.70;99.90
17174;DHT22;8702;48.130;-1.696;2022-12-24T05:53:44;13.70;99.90
17174;DHT22;8702;48.130;-1.696;2022-12-24T05:56:13;13.80;99.90
17174;DHT22;8702;48.130;-1.696;2022-12-24T05:58:41;13.80;99.90
17174;DHT22;8702;48.130;-1.696;2022-12-24T06:01:09;13.80;99.90
17174;DHT22;8702;48.130;-1.696;2022-12-24T06:03:36;13.80;99.90
17174;DHT22;8702;48.130;-1.696;2022-12-24T06:06:05;13.80;99.90
17174;DHT22;8702;48.130;-1.696;2022-12-24T06:08:35;13.90;99.90
17174;DHT22;8702;48.130;-1.696;2022-12-24T06:11:04;13.80;99.90
17174;DHT22;8702;48.130;-1.696;2022-12-24T06:13:32;13.80;99.90
17174;DHT22;8702;48.130;-1.696;2022-12-24T06:16:01;13.80;99.90
17174;DHT22;8702;48.130;-1.696;2022-12-24T06:18:28;13.70;99.90
17174;DHT22;8702;48.130;-1.696;2022-12-24T06:20:56;13.60;99.90
17174;DHT22;8702;48.130;-1.696;2022-12-24T06:23:24;13.60;99.90
17174;DHT22;8702;48.130;-1.696;2022-12-24T06:25:55;13.60;99.90
17174;DHT22;8702;48.130;-1.696;2022-12-24T06:28:22;13.60;99.90
17174;DHT22;8702;48.130;-1.696;2022-12-24T06:30:49;13.70;99.90
17174;DHT22;8702;48.130;-1.696;2022-12-24T06:33:18;13.70;99.90
17174;DHT22;8702;48.130;-1.696;2022-12-24T06:35:45;13.80;99.90
17174;DHT22;8702;48.130;-1.696;2022-12-24T06:38:13;13.70;99.90
17174;DHT22;8702;48.130;-1.696;2022-12-24T06:40:41;13.70;99.90
17174;DHT22;8702;48.130;-1.696;2022-12-24T06:43:10;13.70;99.90
17174;DHT22;8702;48.130;-1.696;2022-12-24T06:45:38;13.70;99.90
17174;DHT22;8702;48.130;-1.696;2022-12-24T06:48:05;13.70;99.90
17174;DHT22;8702;48.130;-1.696;2022-12-24T06:50:33;13.70;99.90
17174;DHT22;8702;48.130;-1.696;2022-12-24T06:53:00;13.80;99.90
17174;DHT22;8702;48.130;-1.696;2022-12-24T06:55:27;13.70;99.90
17174;DHT22;8702;48.130;-1.696;2022-12-24T06:57:54;13.60;99.90
17174;DHT22;8702;48.130;-1.696;2022-12-24T07:00:22;13.60;99.90
17174;DHT22;8702;48.130;-1.696;2022-12-24T07:02:50;13.70;99.90
17174;DHT22;8702;48.130;-1.696;2022-12-24T07:05:17;13.70;99.90
17174;DHT22;8702;48.130;-1.696;2022-12-24T07:07:44;13.70;99.90
17174;DHT22;8702;48.130;-1.696;2022-12-24T07:10:14;13.80;99.90
17174;DHT22;8702;48.130;-1.696;2022-12-24T07:12:42;13.80;99.90
17174;DHT22;8702;48.130;-1.696;2022-12-24T07:15:10;13.80;99.90
17174;DHT22;8702;48.130;-1.696;2022-12-24T07:17:39;13.90;99.90
17174;DHT22;8702;48.130;-1.696;2022-12-24T07:20:08;13.90;99.90
17174;DHT22;8702;48.130;-1.696;2022-12-24T07:22:36;13.90;99.90
17174;DHT22;8702;48.130;-1.696;2022-12-24T07:25:03;13.80;99.90
17174;DHT22;8702;48.130;-1.696;2022-12-24T07:27:30;13.70;99.90
17174;DHT22;8702;48.130;-1.696;2022-12-24T07:29:57;13.70;99.90
17174;DHT22;8702;48.130;-1.696;2022-12-24T07:32:24;13.70;99.90
17174;DHT22;8702;48.130;-1.696;2022-12-24T07:34:52;13.80;99.90
17174;DHT22;8702;48.130;-1.696;2022-12-24T07:37:19;13.90;99.90
17174;DHT22;8702;48.130;-1.696;2022-12-24T07:39:46;13.80;99.90
17174;DHT22;8702;48.130;-1.696;2022-12-24T07:42:13;13.90;99.90
17174;DHT22;8702;48.130;-1.696;2022-12-24T07:44:40;13.90;99.90
17174;DHT22;8702;48.130;-1.696;2022-12-24T07:47:07;14.00;99.90
17174;DHT22;8702;48.130;-1.696;2022-12-24T07:49:34;14.00;99.90
17174;DHT22;8702;48.130;-1.696;2022-12-24T07:52:02;14.10;99.90
17174;DHT22;8702;48.130;-1.696;2022-12-24T07:54:29;14.00;99.90
17174;DHT22;8702;48.130;-1.696;2022-12-24T07:56:56;14.00;99.90
17174;DHT22;8702;48.130;-1.696;2022-12-24T07:59:23;14.00;99.90
17174;DHT22;8702;48.130;-1.696;2022-12-24T08:01:50;14.00;99.90
17174;DHT22;8702;48.130;-1.696;2022-12-24T08:04:17;13.90;99.90
17174;DHT22;8702;48.130;-1.696;2022-12-24T08:06:44;13.90;99.90
17174;DHT22;8702;48.130;-1.696;2022-12-24T08:09:12;14.00;99.90
17174;DHT22;8702;48.130;-1.696;2022-12-24T08:11:40;14.00;99.90
17174;DHT22;8702;48.130;-1.696;2022-12-24T08:14:06;13.60;99.90
17174;DHT22;8702;48.130;-1.696;2022-12-24T08:16:33;13.90;99.90
17174;DHT22;8702;48.130;-1.696;2022-12-24T08:19:00;13.90;99.90
17174;DHT22;8702;48.130;-1.696;2022-12-24T08:21:27;13.90;99.90
17174;DHT22;8702;48.130;-1.696;2022-12-24T08:23:54;14.00;99.90
17174;DHT22;8702;48.130;-1.696;2022-12-24T08:26:22;14.00;99.90
17174;DHT22;8702;48.130;-1.696;2022-12-24T08:28:50;14.00;99.90
17174;DHT22;8702;48.130;-1.696;2022-12-24T08:31:16;14.10;99.90
17174;DHT22;8702;48.130;-1.696;2022-12-24T08:33:43;14.10;99.90
17174;DHT22;8702;48.130;-1.696;2022-12-24T08:36:10;14.20;99.90
17174;DHT22;8702;48.130;-1.696;2022-12-24T08:38:37;14.20;99.90
17174;DHT22;8702;48.130;-1.696;2022-12-24T08:41:04;14.20;99.90
17174;DHT22;8702;48.130;-1.696;2022-12-24T08:43:33;14.20;99.90
17174;DHT22;8702;48.130;-1.696;2022-12-24T08:46:01;14.20;99.90
17174;DHT22;8702;48.130;-1.696;2022-12-24T08:48:29;14.10;99.90
17174;DHT22;8702;48.130;-1.696;2022-12-24T08:50:56;14.20;99.90
17174;DHT22;8702;48.130;-1.696;2022-12-24T08:53:23;14.20;99.90
17174;DHT22;8702;48.130;-1.696;2022-12-24T08:55:50;14.10;99.90
17174;DHT22;8702;48.130;-1.696;2022-12-24T08:58:17;14.20;99.90
17174;DHT22;8702;48.130;-1.696;2022-12-24T09:00:45;14.10;99.90
17174;DHT22;8702;48.130;-1.696;2022-12-24T09:03:13;14.20;99.90
17174;DHT22;8702;48.130;-1.696;2022-12-24T09:05:41;14.10;99.90
17174;DHT22;8702;48.130;-1.696;2022-12-24T09:08:08;14.10;99.90
17174;DHT22;8702;48.130;-1.696;2022-12-24T09:10:35;14.10;99.90
17174;DHT22;8702;48.130;-1.696;2022-12-24T09:13:02;14.10;99.90
17174;DHT22;8702;48.130;-1.696;2022-12-24T09:15:29;14.00;99.90
17174;DHT22;8702;48.130;-1.696;2022-12-24T09:17:57;14.00;99.90
17174;DHT22;8702;48.130;-1.696;2022-12-24T09:20:24;14.10;99.90
17174;DHT22;8702;48.130;-1.696;2022-12-24T09:22:51;14.00;99.90
17174;DHT22;8702;48.130;-1.696;2022-12-24T09:25:18;14.00;99.90
17174;DHT22;8702;48.130;-1.696;2022-12-24T09:27:45;14.00;99.90
17174;DHT22;8702;48.130;-1.696;2022-12-24T09:30:13;14.00;99.90
17174;DHT22;8702;48.130;-1.696;2022-12-24T09:32:40;14.00;99.90
17174;DHT22;8702;48.130;-1.696;2022-12-24T09:35:09;14.00;99.90
17174;DHT22;8702;48.130;-1.696;2022-12-24T09:37:36;14.00;99.90
17174;DHT22;8702;48.130;-1.696;2022-12-24T09:40:05;14.00;99.90
17174;DHT22;8702;48.130;-1.696;2022-12-24T09:42:40;14.00;99.90
17174;DHT22;8702;48.130;-1.696;2022-12-24T09:45:13;14.00;99.90
17174;DHT22;8702;48.130;-1.696;2022-12-24T09:47:45;14.10;99.90
17174;DHT22;8702;48.130;-1.696;2022-12-24T09:50:26;14.00;99.90
17174;DHT22;8702;48.130;-1.696;2022-12-24T09:52:56;14.10;99.90
17174;DHT22;8702;48.130;-1.696;2022-12-24T09:55:27;14.10;99.90
17174;DHT22;8702;48.130;-1.696;2022-12-24T09:57:57;14.10;99.90
17174;DHT22;8702;48.130;-1.696;2022-12-24T10:00:27;14.10;99.90
17174;DHT22;8702;48.130;-1.696;2022-12-24T10:02:55;14.00;99.90
17174;DHT22;8702;48.130;-1.696;2022-12-24T10:05:36;14.10;99.90
17174;DHT22;8702;48.130;-1.696;2022-12-24T10:08:12;13.90;99.90
17174;DHT22;8702;48.130;-1.696;2022-12-24T10:10:52;13.90;99.90
17174;DHT22;8702;48.130;-1.696;2022-12-24T10:21:08;14.20;99.90
17174;DHT22;8702;48.130;-1.696;2022-12-24T10:23:40;14.20;99.90
17174;DHT22;8702;48.130;-1.696;2022-12-24T10:26:14;14.20;99.90
17174;DHT22;8702;48.130;-1.696;2022-12-24T10:28:46;14.20;99.90
17174;DHT22;8702;48.130;-1.696;2022-12-24T10:31:17;14.20;99.90
17174;DHT22;8702;48.130;-1.696;2022-12-24T10:33:49;14.30;99.90
17174;DHT22;8702;48.130;-1.696;2022-12-24T10:36:23;13.90;99.90
17174;DHT22;8702;48.130;-1.696;2022-12-24T10:38:52;14.40;99.90
17174;DHT22;8702;48.130;-1.696;2022-12-24T10:41:19;14.40;99.90
17174;DHT22;8702;48.130;-1.696;2022-12-24T10:43:47;14.40;99.90
17174;DHT22;8702;48.130;-1.696;2022-12-24T10:46:17;14.40;99.90
17174;DHT22;8702;48.130;-1.696;2022-12-24T10:48:51;14.50;99.90
17174;DHT22;8702;48.130;-1.696;2022-12-24T10:51:24;14.50;99.90
17174;DHT22;8702;48.130;-1.696;2022-12-24T10:53:57;14.40;99.90
17174;DHT22;8702;48.130;-1.696;2022-12-24T10:56:26;14.40;99.90
17174;DHT22;8702;48.130;-1.696;2022-12-24T10:58:54;14.30;99.90
17174;DHT22;8702;48.130;-1.696;2022-12-24T11:01:42;14.20;99.90
17174;DHT22;8702;48.130;-1.696;2022-12-24T11:04:15;14.20;99.90
17174;DHT22;8702;48.130;-1.696;2022-12-24T11:06:53;14.20;99.90
17174;DHT22;8702;48.130;-1.696;2022-12-24T11:09:22;14.20;99.90
17174;DHT22;8702;48.130;-1.696;2022-12-24T11:11:49;14.30;99.90
17174;DHT22;8702;48.130;-1.696;2022-12-24T11:14:17;14.20;99.90
17174;DHT22;8702;48.130;-1.696;2022-12-24T11:16:51;14.20;99.90
17174;DHT22;8702;48.130;-1.696;2022-12-24T11:19:21;15.20;99.90
17174;DHT22;8702;48.130;-1.696;2022-12-24T11:21:59;14.20;99.90
17174;DHT22;8702;48.130;-1.696;2022-12-24T11:24:29;14.10;99.90
17174;DHT22;8702;48.130;-1.696;2022-12-24T11:27:21;14.00;99.90
17174;DHT22;8702;48.130;-1.696;2022-12-24T11:29:50;14.10;99.90
17174;DHT22;8702;48.130;-1.696;2022-12-24T11:32:19;14.10;99.90
17174;DHT22;8702;48.130;-1.696;2022-12-24T11:34:46;14.10;99.90
17174;DHT22;8702;48.130;-1.696;2022-12-24T11:37:17;14.00;99.90
17174;DHT22;8702;48.130;-1.696;2022-12-24T11:39:48;14.00;99.90
17174;DHT22;8702;48.130;-1.696;2022-12-24T11:42:25;14.10;99.90
17174;DHT22;8702;48.130;-1.696;2022-12-24T11:44:54;14.00;99.90
17174;DHT22;8702;48.130;-1.696;2022-12-24T11:47:31;14.00;99.90
17174;DHT22;8702;48.130;-1.696;2022-12-24T11:57:54;13.90;99.90
17174;DHT22;8702;48.130;-1.696;2022-12-24T12:00:23;14.10;99.90
17174;DHT22;8702;48.130;-1.696;2022-12-24T12:02:51;14.10;99.90
17174;DHT22;8702;48.130;-1.696;2022-12-24T12:05:22;14.20;99.90
17174;DHT22;8702;48.130;-1.696;2022-12-24T12:07:55;14.10;99.90
17174;DHT22;8702;48.130;-1.696;2022-12-24T12:10:26;14.00;99.90
17174;DHT22;8702;48.130;-1.696;2022-12-24T12:12:59;14.10;99.90
17174;DHT22;8702;48.130;-1.696;2022-12-24T12:15:31;14.00;99.90
17174;DHT22;8702;48.130;-1.696;2022-12-24T12:18:03;13.90;99.90
17174;DHT22;8702;48.130;-1.696;2022-12-24T12:20:34;14.00;99.90
17174;DHT22;8702;48.130;-1.696;2022-12-24T12:23:10;14.10;99.90
17174;DHT22;8702;48.130;-1.696;2022-12-24T12:25:44;14.00;99.90
17174;DHT22;8702;48.130;-1.696;2022-12-24T12:28:17;14.00;99.90
17174;DHT22;8702;48.130;-1.696;2022-12-24T12:30:52;14.00;99.90
17174;DHT22;8702;48.130;-1.696;2022-12-24T12:33:25;14.10;99.90
17174;DHT22;8702;48.130;-1.696;2022-12-24T12:35:58;14.20;99.90
17174;DHT22;8702;48.130;-1.696;2022-12-24T12:38:28;14.20;99.90
17174;DHT22;8702;48.130;-1.696;2022-12-24T12:41:09;14.20;99.90
17174;DHT22;8702;48.130;-1.696;2022-12-24T12:44:02;14.20;99.90
17174;DHT22;8702;48.130;-1.696;2022-12-24T12:46:37;14.10;99.90
17174;DHT22;8702;48.130;-1.696;2022-12-24T12:49:16;14.20;99.90
17174;DHT22;8702;48.130;-1.696;2022-12-24T12:51:52;14.30;99.90
17174;DHT22;8702;48.130;-1.696;2022-12-24T12:54:36;14.20;99.90
17174;DHT22;8702;48.130;-1.696;2022-12-24T12:57:11;14.20;99.90
17174;DHT22;8702;48.130;-1.696;2022-12-24T12:59:42;14.40;99.90
17174;DHT22;8702;48.130;-1.696;2022-12-24T13:02:34;14.40;99.90
17174;DHT22;8702;48.130;-1.696;2022-12-24T13:08:16;14.40;99.90
17174;DHT22;8702;48.130;-1.696;2022-12-24T13:18:40;14.60;99.90
17174;DHT22;8702;48.130;-1.696;2022-12-24T13:21:15;14.50;99.90
17174;DHT22;8702;48.130;-1.696;2022-12-24T13:23:43;14.30;99.90
17174;DHT22;8702;48.130;-1.696;2022-12-24T13:26:13;14.20;99.90
17174;DHT22;8702;48.130;-1.696;2022-12-24T13:28:42;14.30;99.90
17174;DHT22;8702;48.130;-1.696;2022-12-24T13:31:26;14.30;99.90
17174;DHT22;8702;48.130;-1.696;2022-12-24T13:34:01;14.20;99.90
17174;DHT22;8702;48.130;-1.696;2022-12-24T13:37:00;14.20;99.90
17174;DHT22;8702;48.130;-1.696;2022-12-24T13:39:30;14.30;99.90
17174;DHT22;8702;48.130;-1.696;2022-12-24T13:42:45;14.20;99.90
17174;DHT22;8702;48.130;-1.696;2022-12-24T13:45:42;14.20;99.90
17174;DHT22;8702;48.130;-1.696;2022-12-24T13:48:27;14.10;99.90
17174;DHT22;8702;48.130;-1.696;2022-12-24T13:50:57;14.10;99.90
17174;DHT22;8702;48.130;-1.696;2022-12-24T13:53:28;14.40;99.90
17174;DHT22;8702;48.130;-1.696;2022-12-24T13:56:02;14.00;99.90
17174;DHT22;8702;48.130;-1.696;2022-12-24T13:58:33;14.00;99.90
17174;DHT22;8702;48.130;-1.696;2022-12-24T14:01:03;14.00;99.90
17174;DHT22;8702;48.130;-1.696;2022-12-24T14:03:34;14.10;99.90
17174;DHT22;8702;48.130;-1.696;2022-12-24T14:06:05;14.10;99.90
17174;DHT22;8702;48.130;-1.696;2022-12-24T14:08:38;14.00;99.90
17174;DHT22;8702;48.130;-1.696;2022-12-24T14:11:09;14.10;99.90
17174;DHT22;8702;48.130;-1.696;2022-12-24T14:16:52;14.10;99.90
17174;DHT22;8702;48.130;-1.696;2022-12-24T14:19:22;14.00;99.90
17174;DHT22;8702;48.130;-1.696;2022-12-24T14:21:58;14.10;99.90
17174;DHT22;8702;48.130;-1.696;2022-12-24T14:24:32;14.10;99.90
17174;DHT22;8702;48.130;-1.696;2022-12-24T14:27:12;14.00;99.90
17174;DHT22;8702;48.130;-1.696;2022-12-24T14:29:47;13.90;99.90
17174;DHT22;8702;48.130;-1.696;2022-12-24T14:32:17;14.00;99.90
17174;DHT22;8702;48.130;-1.696;2022-12-24T14:37:12;14.10;99.90
17174;DHT22;8702;48.130;-1.696;2022-12-24T14:55:00;14.20;99.90
17174;DHT22;8702;48.130;-1.696;2022-12-24T14:57:47;14.20;99.90
17174;DHT22;8702;48.130;-1.696;2022-12-24T15:00:18;14.00;99.90
17174;DHT22;8702;48.130;-1.696;2022-12-24T15:02:49;13.90;99.90
17174;DHT22;8702;48.130;-1.696;2022-12-24T15:05:18;13.90;99.90
17174;DHT22;8702;48.130;-1.696;2022-12-24T15:07:49;14.10;99.90
17174;DHT22;8702;48.130;-1.696;2022-12-24T15:10:28;14.00;99.90
17174;DHT22;8702;48.130;-1.696;2022-12-24T15:13:00;14.10;99.90
17174;DHT22;8702;48.130;-1.696;2022-12-24T15:15:28;14.10;99.90
17174;DHT22;8702;48.130;-1.696;2022-12-24T15:17:57;14.00;99.90
17174;DHT22;8702;48.130;-1.696;2022-12-24T15:20:26;14.00;99.90
17174;DHT22;8702;48.130;-1.696;2022-12-24T15:22:56;14.00;99.90
17174;DHT22;8702;48.130;-1.696;2022-12-24T15:25:25;14.00;99.90
17174;DHT22;8702;48.130;-1.696;2022-12-24T15:27:52;14.10;99.90
17174;DHT22;8702;48.130;-1.696;2022-12-24T15:30:23;14.10;99.90
17174;DHT22;8702;48.130;-1.696;2022-12-24T15:32:50;14.10;99.90
17174;DHT22;8702;48.130;-1.696;2022-12-24T15:35:47;14.20;99.90
17174;DHT22;8702;48.130;-1.696;2022-12-24T15:38:28;14.20;99.90
17174;DHT22;8702;48.130;-1.696;2022-12-24T15:40:56;14.30;99.90
17174;DHT22;8702;48.130;-1.696;2022-12-24T15:43:24;14.60;99.90
17174;DHT22;8702;48.130;-1.696;2022-12-24T19:21:08;14.40;99.90
17174;DHT22;8702;48.130;-1.696;2022-12-24T19:23:35;14.40;99.90
17174;DHT22;8702;48.130;-1.696;2022-12-24T19:26:03;14.20;99.90
17174;DHT22;8702;48.130;-1.696;2022-12-24T19:28:32;14.30;99.90
17174;DHT22;8702;48.130;-1.696;2022-12-24T19:31:01;14.30;99.90
17174;DHT22;8702;48.130;-1.696;2022-12-24T19:33:29;14.20;99.90
17174;DHT22;8702;48.130;-1.696;2022-12-24T19:38:25;14.10;99.90
17174;DHT22;8702;48.130;-1.696;2022-12-24T19:40:52;14.20;99.90
17174;DHT22;8702;48.130;-1.696;2022-12-24T19:43:19;14.20;99.90
17174;DHT22;8702;48.130;-1.696;2022-12-24T19:45:47;14.20;99.90
17174;DHT22;8702;48.130;-1.696;2022-12-24T19:48:14;14.20;99.90
17174;DHT22;8702;48.130;-1.696;2022-12-24T19:50:41;14.20;99.90
17174;DHT22;8702;48.130;-1.696;2022-12-24T19:53:08;14.20;99.90
17174;DHT22;8702;48.130;-1.696;2022-12-24T19:55:35;14.20;99.90
17174;DHT22;8702;48.130;-1.696;2022-12-24T19:58:02;14.10;99.90
17174;DHT22;8702;48.130;-1.696;2022-12-24T20:00:29;14.00;99.90
17174;DHT22;8702;48.130;-1.696;2022-12-24T20:02:57;14.00;99.90
17174;DHT22;8702;48.130;-1.696;2022-12-24T20:05:24;14.10;99.90
17174;DHT22;8702;48.130;-1.696;2022-12-24T20:07:51;14.10;99.90
17174;DHT22;8702;48.130;-1.696;2022-12-24T20:10:18;14.00;99.90
17174;DHT22;8702;48.130;-1.696;2022-12-24T20:12:45;13.90;99.90
17174;DHT22;8702;48.130;-1.696;2022-12-24T20:15:12;13.90;99.90
17174;DHT22;8702;48.130;-1.696;2022-12-24T20:17:39;14.00;99.90
17174;DHT22;8702;48.130;-1.696;2022-12-24T20:20:08;13.80;99.90
17174;DHT22;8702;48.130;-1.696;2022-12-24T20:22:35;13.90;99.90
17174;DHT22;8702;48.130;-1.696;2022-12-24T20:25:03;13.90;99.90
17174;DHT22;8702;48.130;-1.696;2022-12-24T20:27:30;14.00;99.90
17174;DHT22;8702;48.130;-1.696;2022-12-24T20:29:57;14.00;99.90